Time;durP1;ratioP1;P1;durP2;ratioP2;P2;SDS_P1;SDS_P2;PMS_P1;PMS_P2;Temp;Humidity;BMP_temperature;BMP_pressure;BME280_temperature;BME280_humidity;BME280_pressure;Samples;Min_cycle;Max_cycle;Signal;HPM_P1;HPM_P2
2023/12/19 00:01:15;;;;;;;26.13;15.70;;;;;;;;;;5040266;28;20253;-77
2023/12/19 00:03:42;;;;;;;27.20;14.70;;;;;;;;;;5045745;28;20629;-78
2023/12/19 00:06:09;;;;;;;23.83;14.10;;;;;;;;;;5043542;28;20282;-78
2023/12/19 00:08:37;;;;;;;21.17;11.67;;;;;;;;;;5021255;28;20206;-78
2023/12/19 00:11:04;;;;;;;16.83;10.17;;;;;;;;;;5044355;28;20953;-78
2023/12/19 00:13:32;;;;;;;13.83;9.43;;;;;;;;;;5023489;28;20579;-76
2023/12/19 00:16:03;;;;;;;10.20;7.33;;;;;;;;;;5045503;28;20293;-76
2023/12/19 00:18:30;;;;;;;8.80;7.00;;;;;;;;;;5046461;28;20202;-78
2023/12/19 00:20:58;;;;;;;6.50;5.47;;;;;;;;;;5040258;28;20256;-77
2023/12/19 00:23:30;;;;;;;9.60;7.57;;;;;;;;;;5045955;28;20218;-77
2023/12/19 00:25:58;;;;;;;10.97;8.50;;;;;;;;;;5040058;28;20210;-76
2023/12/19 00:28:27;;;;;;;11.20;7.83;;;;;;;;;;5039127;28;20681;-79
2023/12/19 00:30:55;;;;;;;9.47;6.97;;;;;;;;;;5004570;28;1138986;-77
2023/12/19 00:33:22;;;;;;;9.73;7.30;;;;;;;;;;5047019;28;20236;-76
2023/12/19 00:35:50;;;;;;;5.17;4.30;;;;;;;;;;5039584;28;20507;-78
2023/12/19 00:38:18;;;;;;;6.23;4.93;;;;;;;;;;5039255;28;20646;-78
2023/12/19 00:40:45;;;;;;;4.37;3.83;;;;;;;;;;5041366;28;20280;-76
2023/12/19 00:43:12;;;;;;;4.90;4.27;;;;;;;;;;5024422;28;20264;-77
2023/12/19 00:45:39;;;;;;;4.63;3.90;;;;;;;;;;5043097;28;20271;-79
2023/12/19 00:48:07;;;;;;;4.90;4.40;;;;;;;;;;5032132;28;20210;-78
2023/12/19 00:50:34;;;;;;;4.80;4.30;;;;;;;;;;5065882;28;20221;-78
2023/12/19 00:53:01;;;;;;;4.17;3.77;;;;;;;;;;5065818;28;20183;-78
2023/12/19 00:55:29;;;;;;;4.20;3.60;;;;;;;;;;5070418;28;20258;-76
2023/12/19 00:57:56;;;;;;;4.73;3.80;;;;;;;;;;5068927;28;20187;-80
2023/12/19 01:00:23;;;;;;;5.63;3.93;;;;;;;;;;5049266;28;20218;-78
2023/12/19 01:02:50;;;;;;;4.10;3.70;;;;;;;;;;5040701;28;20206;-79
2023/12/19 01:05:17;;;;;;;4.40;3.90;;;;;;;;;;5042582;28;20222;-77
2023/12/19 01:07:45;;;;;;;4.53;4.10;;;;;;;;;;5043986;28;20202;-78
2023/12/19 01:10:12;;;;;;;5.07;3.80;;;;;;;;;;5025378;28;20236;-75
2023/12/19 01:12:40;;;;;;;5.33;4.00;;;;;;;;;;5042558;28;20211;-77
2023/12/19 01:15:07;;;;;;;3.70;3.40;;;;;;;;;;5044296;28;20589;-75
2023/12/19 01:17:35;;;;;;;13.00;5.73;;;;;;;;;;5046830;28;20348;-76
2023/12/19 01:20:02;;;;;;;11.20;6.10;;;;;;;;;;5043089;28;20290;-77
2023/12/19 01:22:29;;;;;;;16.70;6.83;;;;;;;;;;5045105;28;20213;-76
2023/12/19 01:24:56;;;;;;;10.03;4.97;;;;;;;;;;5028737;28;20226;-76
2023/12/19 01:27:24;;;;;;;5.10;3.50;;;;;;;;;;5030975;28;20679;-78
2023/12/19 01:29:51;;;;;;;3.73;3.30;;;;;;;;;;5039289;28;20293;-77
2023/12/19 01:32:20;;;;;;;4.40;3.50;;;;;;;;;;5036858;28;20210;-77
2023/12/19 01:34:48;;;;;;;4.03;3.40;;;;;;;;;;5040721;28;20222;-77
2023/12/19 01:37:15;;;;;;;5.93;3.50;;;;;;;;;;5042951;28;20684;-76
2023/12/19 01:39:42;;;;;;;4.23;3.43;;;;;;;;;;5040600;28;20203;-77
2023/12/19 01:42:09;;;;;;;4.53;3.63;;;;;;;;;;5042455;28;20747;-78
2023/12/19 01:44:37;;;;;;;3.67;3.10;;;;;;;;;;5039659;28;20293;-76
2023/12/19 01:47:04;;;;;;;3.57;3.27;;;;;;;;;;5019332;28;20199;-78
2023/12/19 01:49:32;;;;;;;3.13;2.83;;;;;;;;;;5033674;28;20339;-78
2023/12/19 01:51:59;;;;;;;3.93;3.20;;;;;;;;;;5038932;28;20294;-78
2023/12/19 01:54:27;;;;;;;4.80;4.07;;;;;;;;;;5041916;28;20230;-77
2023/12/19 01:56:54;;;;;;;5.87;4.63;;;;;;;;;;5042580;28;20225;-76
2023/12/19 01:59:21;;;;;;;5.07;4.27;;;;;;;;;;5034287;28;20199;-75
2023/12/19 02:01:49;;;;;;;3.90;3.00;;;;;;;;;;5036954;28;20234;-78
2023/12/19 02:04:16;;;;;;;2.97;2.67;;;;;;;;;;5030874;28;20236;-77
2023/12/19 02:06:43;;;;;;;2.80;2.60;;;;;;;;;;5039397;28;20198;-77
2023/12/19 02:09:11;;;;;;;3.17;2.67;;;;;;;;;;5039696;28;20245;-77
2023/12/19 02:11:38;;;;;;;2.30;2.20;;;;;;;;;;5040092;28;20202;-77
2023/12/19 02:14:05;;;;;;;2.70;2.50;;;;;;;;;;5021505;28;20279;-78
2023/12/19 02:16:32;;;;;;;2.80;2.60;;;;;;;;;;5014539;28;20272;-78
2023/12/19 02:19:01;;;;;;;3.13;2.83;;;;;;;;;;5035810;28;20207;-78
2023/12/19 02:21:29;;;;;;;2.77;2.57;;;;;;;;;;5038666;28;20253;-78
2023/12/19 02:23:56;;;;;;;3.13;2.10;;;;;;;;;;5041863;28;20218;-75
2023/12/19 02:26:24;;;;;;;2.60;2.40;;;;;;;;;;5027691;28;20264;-77
2023/12/19 02:28:52;;;;;;;2.40;2.20;;;;;;;;;;5044767;28;20222;-77
2023/12/19 02:31:20;;;;;;;2.53;2.33;;;;;;;;;;5036518;28;20242;-77
2023/12/19 02:33:48;;;;;;;2.40;2.20;;;;;;;;;;5038952;28;20696;-77
2023/12/19 02:36:16;;;;;;;2.27;2.17;;;;;;;;;;5041667;28;20234;-79
2023/12/19 02:38:44;;;;;;;2.20;2.10;;;;;;;;;;5029457;28;20218;-79
2023/12/19 02:41:11;;;;;;;2.30;2.20;;;;;;;;;;5023736;28;20226;-77
2023/12/19 02:43:39;;;;;;;2.47;2.27;;;;;;;;;;5043079;28;20778;-78
2023/12/19 02:46:21;;;;;;;2.60;2.40;;;;;;;;;;5043112;28;20285;-76
2023/12/19 02:48:48;;;;;;;3.73;2.80;;;;;;;;;;5041265;28;23615;-77
2023/12/19 02:51:18;;;;;;;3.83;2.90;;;;;;;;;;5045509;28;20206;-78
2023/12/19 02:53:45;;;;;;;2.53;2.33;;;;;;;;;;5043279;28;21246;-81
2023/12/19 02:56:12;;;;;;;2.40;2.20;;;;;;;;;;5044154;28;20593;-79
2023/12/19 02:58:40;;;;;;;2.40;2.20;;;;;;;;;;5039434;28;20218;-78
2023/12/19 03:01:07;;;;;;;2.37;2.17;;;;;;;;;;5038410;28;20564;-76
2023/12/19 03:03:35;;;;;;;2.40;2.30;;;;;;;;;;5039345;28;20305;-78
2023/12/19 03:06:03;;;;;;;2.40;2.20;;;;;;;;;;5024733;28;20198;-76
2023/12/19 03:08:30;;;;;;;2.73;2.43;;;;;;;;;;5040493;28;20208;-78
2023/12/19 03:10:58;;;;;;;2.63;2.43;;;;;;;;;;5044686;28;20599;-76
2023/12/19 03:13:25;;;;;;;2.63;2.30;;;;;;;;;;5022185;28;20292;-76
2023/12/19 03:15:53;;;;;;;2.10;2.00;;;;;;;;;;5042426;28;20206;-77
2023/12/19 03:18:24;;;;;;;2.40;2.20;;;;;;;;;;5041628;28;20597;-76
2023/12/19 03:20:52;;;;;;;2.50;2.30;;;;;;;;;;5035723;28;20242;-78
2023/12/19 03:23:19;;;;;;;2.73;2.50;;;;;;;;;;5039361;28;20214;-75
2023/12/19 03:25:47;;;;;;;2.30;2.20;;;;;;;;;;5036231;28;20199;-76
2023/12/19 03:28:14;;;;;;;2.40;2.20;;;;;;;;;;5042845;28;20256;-75
2023/12/19 03:30:42;;;;;;;2.60;2.40;;;;;;;;;;5036530;28;20216;-76
2023/12/19 03:33:09;;;;;;;3.10;2.90;;;;;;;;;;5025141;28;20226;-76
2023/12/19 03:35:37;;;;;;;3.83;2.80;;;;;;;;;;5034685;28;20271;-78
2023/12/19 03:38:04;;;;;;;3.47;3.10;;;;;;;;;;5043405;28;20202;-77
2023/12/19 03:40:33;;;;;;;3.67;3.00;;;;;;;;;;5042377;28;20210;-77
2023/12/19 03:43:00;;;;;;;3.07;2.87;;;;;;;;;;5040802;28;20206;-79
2023/12/19 03:45:27;;;;;;;2.40;2.20;;;;;;;;;;5043877;28;20309;-77
2023/12/19 03:47:55;;;;;;;3.10;2.80;;;;;;;;;;5042274;28;20209;-78
2023/12/19 03:50:22;;;;;;;2.60;2.40;;;;;;;;;;5047290;28;20213;-77
2023/12/19 03:52:49;;;;;;;2.80;2.60;;;;;;;;;;5046607;28;20217;-77
2023/12/19 03:55:17;;;;;;;2.80;2.50;;;;;;;;;;5041852;28;20781;-77
2023/12/19 03:57:44;;;;;;;3.60;2.43;;;;;;;;;;5047200;28;20202;-77
2023/12/19 04:00:12;;;;;;;2.70;2.50;;;;;;;;;;5040568;28;20260;-76
2023/12/19 04:02:39;;;;;;;6.27;3.83;;;;;;;;;;5045245;28;20222;-75
2023/12/19 04:05:06;;;;;;;2.73;2.53;;;;;;;;;;5037859;28;20219;-77
2023/12/19 04:07:34;;;;;;;2.43;2.23;;;;;;;;;;5042207;28;20202;-76
2023/12/19 04:10:01;;;;;;;2.80;2.50;;;;;;;;;;5025253;28;20649;-77
2023/12/19 04:12:29;;;;;;;3.00;2.70;;;;;;;;;;5039969;28;20203;-78
2023/12/19 04:14:56;;;;;;;2.40;2.20;;;;;;;;;;5039336;28;20620;-78
2023/12/19 04:17:23;;;;;;;2.50;2.30;;;;;;;;;;5038843;28;20230;-78
2023/12/19 04:19:51;;;;;;;2.50;2.30;;;;;;;;;;5027539;28;20214;-78
2023/12/19 04:22:18;;;;;;;2.70;2.50;;;;;;;;;;5043413;28;20266;-77
2023/12/19 04:24:45;;;;;;;5.53;3.40;;;;;;;;;;5035356;28;20222;-79
2023/12/19 04:27:13;;;;;;;2.40;2.20;;;;;;;;;;5038454;28;20639;-77
2023/12/19 04:29:40;;;;;;;2.57;2.37;;;;;;;;;;5035285;28;20206;-79
2023/12/19 04:32:07;;;;;;;3.10;2.80;;;;;;;;;;5026750;28;20206;-81
2023/12/19 04:34:34;;;;;;;3.10;2.80;;;;;;;;;;5021795;28;20222;-79
2023/12/19 04:37:02;;;;;;;2.87;2.67;;;;;;;;;;5045742;28;20206;-77
2023/12/19 04:39:29;;;;;;;4.70;3.40;;;;;;;;;;5044618;28;20206;-78
2023/12/19 04:41:57;;;;;;;4.57;3.60;;;;;;;;;;5043988;28;20605;-77
2023/12/19 04:44:24;;;;;;;4.70;3.73;;;;;;;;;;5042424;28;20222;-76
2023/12/19 04:46:51;;;;;;;5.03;3.70;;;;;;;;;;5045834;28;20693;-78
2023/12/19 04:49:19;;;;;;;4.37;3.20;;;;;;;;;;5031735;28;20213;-78
2023/12/19 04:51:47;;;;;;;5.63;4.30;;;;;;;;;;5039211;28;20202;-76
2023/12/19 04:54:14;;;;;;;5.23;4.73;;;;;;;;;;5019902;28;20312;-76
2023/12/19 04:56:42;;;;;;;5.63;4.30;;;;;;;;;;5023008;28;20215;-78
2023/12/19 04:59:09;;;;;;;6.40;4.83;;;;;;;;;;5038674;28;20206;-77
2023/12/19 05:01:40;;;;;;;16.00;10.73;;;;;;;;;;5037240;28;20735;-78
2023/12/19 05:04:09;;;;;;;13.30;9.30;;;;;;;;;;5019186;28;20225;-78
2023/12/19 05:06:36;;;;;;;11.70;8.60;;;;;;;;;;5044597;28;20614;-78
2023/12/19 05:09:04;;;;;;;12.13;9.30;;;;;;;;;;5035291;28;20250;-77
2023/12/19 05:11:31;;;;;;;14.07;10.67;;;;;;;;;;5021758;28;20283;-77
2023/12/19 05:13:58;;;;;;;17.20;12.00;;;;;;;;;;5044249;28;20246;-76
2023/12/19 05:16:25;;;;;;;16.67;12.27;;;;;;;;;;5027813;28;20240;-76
2023/12/19 05:18:52;;;;;;;16.03;11.80;;;;;;;;;;5043479;28;20252;-76
2023/12/19 05:21:21;;;;;;;13.23;9.77;;;;;;;;;;5047370;28;20342;-78
2023/12/19 05:23:48;;;;;;;10.97;7.83;;;;;;;;;;5036154;28;20651;-76
2023/12/19 05:26:16;;;;;;;9.90;7.33;;;;;;;;;;5034658;28;20632;-77
2023/12/19 05:28:43;;;;;;;10.33;6.60;;;;;;;;;;5034898;28;20672;-77
2023/12/19 05:31:11;;;;;;;8.33;6.13;;;;;;;;;;5035983;28;20272;-77
2023/12/19 05:33:38;;;;;;;8.10;5.53;;;;;;;;;;5037380;28;20222;-81
2023/12/19 05:36:06;;;;;;;5.43;4.90;;;;;;;;;;5028189;28;20373;-78
2023/12/19 05:38:33;;;;;;;4.77;4.27;;;;;;;;;;5031433;28;20271;-77
2023/12/19 05:41:02;;;;;;;4.77;4.37;;;;;;;;;;5010134;28;20235;-77
2023/12/19 05:43:29;;;;;;;4.50;4.03;;;;;;;;;;5034737;28;20218;-78
2023/12/19 05:45:56;;;;;;;5.50;4.80;;;;;;;;;;5028502;28;20205;-77
2023/12/19 05:48:24;;;;;;;7.17;5.40;;;;;;;;;;5030047;28;20298;-81
2023/12/19 05:50:52;;;;;;;15.83;9.40;;;;;;;;;;5034532;28;20664;-76
2023/12/19 05:53:19;;;;;;;9.40;7.00;;;;;;;;;;5035682;28;20620;-77
2023/12/19 05:55:47;;;;;;;15.20;4.30;;;;;;;;;;5034990;28;20203;-78
2023/12/19 05:58:14;;;;;;;3.17;2.87;;;;;;;;;;5034620;28;20774;-78
2023/12/19 06:00:44;;;;;;;4.73;3.20;;;;;;;;;;5041747;28;20210;-77
2023/12/19 06:03:12;;;;;;;3.90;3.07;;;;;;;;;;5034347;28;20669;-81
2023/12/19 06:05:39;;;;;;;4.40;4.00;;;;;;;;;;5040194;28;20673;-79
2023/12/19 06:08:07;;;;;;;44.97;25.07;;;;;;;;;;5040912;28;20194;-78
2023/12/19 06:10:35;;;;;;;42.77;26.50;;;;;;;;;;5045959;28;20209;-79
2023/12/19 06:13:02;;;;;;;25.17;19.07;;;;;;;;;;5043728;28;20217;-79
2023/12/19 06:15:30;;;;;;;10.27;8.40;;;;;;;;;;5022894;28;20222;-78
2023/12/19 06:17:57;;;;;;;5.87;5.00;;;;;;;;;;5041237;28;20206;-79
2023/12/19 06:20:24;;;;;;;4.47;4.00;;;;;;;;;;5026586;28;20210;-78
2023/12/19 06:22:52;;;;;;;4.23;3.80;;;;;;;;;;5036442;28;20732;-77
2023/12/19 06:25:20;;;;;;;3.50;3.20;;;;;;;;;;5021472;28;20245;-77
2023/12/19 06:27:47;;;;;;;2.93;2.73;;;;;;;;;;5021516;28;20581;-77
2023/12/19 06:30:15;;;;;;;3.53;3.23;;;;;;;;;;5025008;28;20268;-76
2023/12/19 06:32:54;;;;;;;3.33;3.03;;;;;;;;;;5025430;28;20217;-78
2023/12/19 06:35:23;;;;;;;3.30;3.00;;;;;;;;;;5043208;28;20234;-79
2023/12/19 06:37:51;;;;;;;3.07;2.87;;;;;;;;;;5046936;28;20681;-77
2023/12/19 06:40:18;;;;;;;3.30;3.00;;;;;;;;;;5038704;28;20803;-78
2023/12/19 06:42:47;;;;;;;2.80;2.60;;;;;;;;;;5044488;28;20222;-79
2023/12/19 06:45:16;;;;;;;4.70;3.00;;;;;;;;;;5040146;28;20237;-80
2023/12/19 06:47:43;;;;;;;3.50;3.20;;;;;;;;;;5043288;28;20198;-79
2023/12/19 06:50:10;;;;;;;3.50;3.20;;;;;;;;;;5036037;28;20305;-78
2023/12/19 06:52:37;;;;;;;8.70;5.97;;;;;;;;;;5042129;28;20673;-78
2023/12/19 06:55:04;;;;;;;9.27;6.37;;;;;;;;;;5047495;28;20225;-79
2023/12/19 06:57:35;;;;;;;8.97;6.60;;;;;;;;;;5044355;28;20202;-78
2023/12/19 07:00:06;;;;;;;6.10;4.60;;;;;;;;;;5042531;28;20202;-78
2023/12/19 07:02:35;;;;;;;3.40;3.10;;;;;;;;;;5027242;28;20234;-76
2023/12/19 07:05:02;;;;;;;4.07;3.60;;;;;;;;;;5050980;28;20237;-76
2023/12/19 07:07:29;;;;;;;3.83;3.53;;;;;;;;;;5045123;28;20206;-78
2023/12/19 07:09:57;;;;;;;3.70;3.40;;;;;;;;;;5027744;28;20215;-78
2023/12/19 07:12:24;;;;;;;2.87;2.67;;;;;;;;;;5035353;28;21042;-79
2023/12/19 07:14:53;;;;;;;5.67;2.63;;;;;;;;;;5028637;28;20257;-81
2023/12/19 07:17:24;;;;;;;2.97;2.67;;;;;;;;;;5041943;28;20186;-81
2023/12/19 07:19:51;;;;;;;3.20;2.90;;;;;;;;;;5053007;28;20390;-78
2023/12/19 07:22:19;;;;;;;2.87;2.67;;;;;;;;;;5065699;28;20218;-79
2023/12/19 07:24:46;;;;;;;2.30;2.10;;;;;;;;;;5073847;28;20206;-76
2023/12/19 07:27:13;;;;;;;3.27;3.07;;;;;;;;;;5071322;28;20210;-78
2023/12/19 07:29:40;;;;;;;4.20;3.80;;;;;;;;;;5076253;28;20225;-76
2023/12/19 07:32:08;;;;;;;3.57;3.00;;;;;;;;;;5056819;28;20190;-76
2023/12/19 07:34:36;;;;;;;2.67;2.47;;;;;;;;;;5051476;28;20225;-78
2023/12/19 07:37:03;;;;;;;2.60;2.20;;;;;;;;;;5039399;28;20263;-79
2023/12/19 07:39:30;;;;;;;2.63;2.43;;;;;;;;;;5024713;28;20217;-80
2023/12/19 07:41:58;;;;;;;2.57;2.47;;;;;;;;;;5015849;28;20231;-80
2023/12/19 07:44:25;;;;;;;2.67;2.20;;;;;;;;;;5033194;28;20230;-80
2023/12/19 07:46:52;;;;;;;3.20;2.90;;;;;;;;;;5043040;28;20217;-77
2023/12/19 07:49:19;;;;;;;3.03;2.70;;;;;;;;;;5035839;28;20646;-79
2023/12/19 07:51:47;;;;;;;2.60;2.40;;;;;;;;;;5044791;28;20210;-79
2023/12/19 07:54:14;;;;;;;2.50;2.30;;;;;;;;;;5044344;28;20222;-76
2023/12/19 07:56:42;;;;;;;2.30;2.10;;;;;;;;;;5042733;28;20206;-78
2023/12/19 07:59:13;;;;;;;2.50;2.30;;;;;;;;;;5040338;28;20261;-78
2023/12/19 08:01:41;;;;;;;2.50;2.30;;;;;;;;;;5039231;28;20206;-79
2023/12/19 08:04:08;;;;;;;2.90;2.30;;;;;;;;;;5035785;28;20218;-78
2023/12/19 08:06:36;;;;;;;2.50;2.30;;;;;;;;;;5033192;28;20203;-78
2023/12/19 08:09:04;;;;;;;3.20;2.90;;;;;;;;;;5037838;28;20698;-78
2023/12/19 08:11:31;;;;;;;4.17;3.33;;;;;;;;;;5025742;28;20199;-78
2023/12/19 08:13:58;;;;;;;2.90;2.70;;;;;;;;;;5037161;28;20748;-75
2023/12/19 08:16:26;;;;;;;5.50;5.00;;;;;;;;;;5036933;28;20302;-76
2023/12/19 08:18:53;;;;;;;17.23;9.33;;;;;;;;;;5043284;28;20233;-79
2023/12/19 08:21:20;;;;;;;34.43;16.63;;;;;;;;;;5021503;28;20668;-78
2023/12/19 08:23:48;;;;;;;15.13;8.50;;;;;;;;;;5039084;28;20284;-81
2023/12/19 08:26:15;;;;;;;13.40;8.27;;;;;;;;;;5040206;28;20673;-80
2023/12/19 08:28:43;;;;;;;3.97;3.57;;;;;;;;;;5036142;28;20203;-78
2023/12/19 08:31:10;;;;;;;3.83;3.53;;;;;;;;;;5042251;28;20214;-76
2023/12/19 08:33:41;;;;;;;3.80;2.97;;;;;;;;;;5040870;28;20225;-78
2023/12/19 08:36:08;;;;;;;2.90;2.70;;;;;;;;;;5037437;28;20230;-80
2023/12/19 08:38:56;;;;;;;2.90;2.70;;;;;;;;;;5025442;28;20217;-78
2023/12/19 08:41:24;;;;;;;3.20;2.93;;;;;;;;;;5041712;28;20210;-78
2023/12/19 08:43:52;;;;;;;3.00;2.70;;;;;;;;;;5039831;28;20258;-77
2023/12/19 08:46:20;;;;;;;3.03;2.83;;;;;;;;;;5026470;28;20206;-76
2023/12/19 08:48:48;;;;;;;4.40;4.00;;;;;;;;;;5037722;28;20293;-77
2023/12/19 08:51:16;;;;;;;2.80;2.60;;;;;;;;;;5027038;28;20563;-80
2023/12/19 08:53:43;;;;;;;3.00;2.70;;;;;;;;;;5033840;28;20230;-76
2023/12/19 08:56:10;;;;;;;2.63;2.43;;;;;;;;;;5039606;28;20295;-80
2023/12/19 08:58:37;;;;;;;4.90;2.60;;;;;;;;;;5023186;28;20225;-76
2023/12/19 09:01:04;;;;;;;3.67;2.50;;;;;;;;;;5020744;28;20351;-76
2023/12/19 09:03:32;;;;;;;2.90;2.60;;;;;;;;;;5040192;28;20226;-78
2023/12/19 09:06:01;;;;;;;2.87;2.40;;;;;;;;;;5038678;28;20198;-77
2023/12/19 09:08:28;;;;;;;2.50;2.30;;;;;;;;;;5027180;28;20202;-78
2023/12/19 09:10:55;;;;;;;2.63;2.43;;;;;;;;;;5036814;28;20202;-78
2023/12/19 09:13:23;;;;;;;4.60;3.10;;;;;;;;;;5021915;28;20207;-77
2023/12/19 09:15:50;;;;;;;4.00;3.57;;;;;;;;;;5036387;28;20210;-78
2023/12/19 09:18:18;;;;;;;3.87;3.27;;;;;;;;;;5038065;28;20215;-80
2023/12/19 09:20:45;;;;;;;5.77;4.43;;;;;;;;;;5023853;28;20217;-78
2023/12/19 09:23:13;;;;;;;4.30;3.87;;;;;;;;;;5035688;28;20258;-78
2023/12/19 09:25:40;;;;;;;7.43;4.57;;;;;;;;;;5040818;28;20206;-78
2023/12/19 09:28:07;;;;;;;4.90;4.03;;;;;;;;;;5018926;28;20450;-76
2023/12/19 09:30:35;;;;;;;3.63;3.20;;;;;;;;;;5035273;28;20210;-77
2023/12/19 09:33:02;;;;;;;2.50;2.30;;;;;;;;;;5040471;28;20617;-77
2023/12/19 09:35:30;;;;;;;3.00;2.07;;;;;;;;;;5020451;28;20233;-77
2023/12/19 09:38:01;;;;;;;2.77;2.57;;;;;;;;;;5045268;28;20206;-78
2023/12/19 09:40:32;;;;;;;3.80;2.03;;;;;;;;;;5046026;28;20297;-79
2023/12/19 09:42:59;;;;;;;2.40;2.20;;;;;;;;;;5046878;28;20230;-82
2023/12/19 09:45:27;;;;;;;2.40;2.20;;;;;;;;;;5049329;28;20225;-78
2023/12/19 09:48:01;;;;;;;2.33;2.10;;;;;;;;;;5043270;28;20586;-76
2023/12/19 09:50:29;;;;;;;2.17;1.97;;;;;;;;;;5039737;28;20252;-77
2023/12/19 09:52:59;;;;;;;2.17;1.97;;;;;;;;;;5046361;28;20711;-80
2023/12/19 09:55:30;;;;;;;1.87;1.77;;;;;;;;;;5023360;28;20246;-80
2023/12/19 09:57:59;;;;;;;2.13;2.03;;;;;;;;;;5042729;28;20305;-75
2023/12/19 10:00:28;;;;;;;2.43;2.23;;;;;;;;;;5052176;28;20198;-78
2023/12/19 10:02:56;;;;;;;2.67;2.47;;;;;;;;;;5067810;28;20225;-76
2023/12/19 10:05:23;;;;;;;2.70;2.50;;;;;;;;;;5065710;28;20222;-78
2023/12/19 10:07:51;;;;;;;2.53;2.33;;;;;;;;;;5052289;28;20183;-78
2023/12/19 10:10:18;;;;;;;2.40;1.83;;;;;;;;;;5072725;28;20214;-78
2023/12/19 10:12:49;;;;;;;2.37;2.17;;;;;;;;;;5069788;28;20198;-77
2023/12/19 10:15:25;;;;;;;2.10;2.00;;;;;;;;;;5071861;28;20221;-79
2023/12/19 10:18:10;;;;;;;2.00;1.90;;;;;;;;;;5053224;28;20206;-76
2023/12/19 10:20:40;;;;;;;2.60;2.40;;;;;;;;;;5021634;28;20194;-77
2023/12/19 10:23:08;;;;;;;2.00;1.80;;;;;;;;;;5045710;28;20697;-75
2023/12/19 10:25:35;;;;;;;2.10;2.00;;;;;;;;;;5025965;28;20264;-80
2023/12/19 10:28:13;;;;;;;2.53;2.33;;;;;;;;;;5041612;28;20221;-80
2023/12/19 10:30:42;;;;;;;3.20;2.90;;;;;;;;;;5048706;28;20210;-79
2023/12/19 10:33:12;;;;;;;3.23;2.77;;;;;;;;;;5045932;28;20209;-78
2023/12/19 10:35:40;;;;;;;2.63;2.23;;;;;;;;;;5042364;28;20321;-79
2023/12/19 10:38:07;;;;;;;2.50;2.30;;;;;;;;;;5042257;28;20206;-76
2023/12/19 10:40:36;;;;;;;2.20;2.00;;;;;;;;;;5042228;28;20206;-78
2023/12/19 10:43:05;;;;;;;2.60;2.00;;;;;;;;;;5047465;28;20741;-78
2023/12/19 10:45:33;;;;;;;2.43;1.80;;;;;;;;;;5042885;28;20209;-78
2023/12/19 10:48:01;;;;;;;1.80;1.70;;;;;;;;;;5047009;28;20198;-78
2023/12/19 10:50:29;;;;;;;1.80;1.70;;;;;;;;;;5060158;28;20198;-78
2023/12/19 10:53:01;;;;;;;1.70;1.60;;;;;;;;;;5061205;28;20289;-76
2023/12/19 10:55:33;;;;;;;1.87;1.73;;;;;;;;;;5067458;28;20261;-78
2023/12/19 10:58:02;;;;;;;1.60;1.50;;;;;;;;;;5066952;28;20190;-79
2023/12/19 11:00:55;;;;;;;3.30;1.80;;;;;;;;;;5069380;28;20208;-80
2023/12/19 11:03:27;;;;;;;1.70;1.60;;;;;;;;;;5002175;28;20239;-76
2023/12/19 11:05:55;;;;;;;2.20;1.90;;;;;;;;;;5000595;28;20591;-79
2023/12/19 11:08:22;;;;;;;2.13;1.60;;;;;;;;;;5004598;28;20211;-77
2023/12/19 11:10:54;;;;;;;2.00;1.83;;;;;;;;;;5005154;28;20281;-78
2023/12/19 11:13:21;;;;;;;1.70;1.60;;;;;;;;;;5003154;28;20207;-79
2023/12/19 11:15:55;;;;;;;2.00;1.80;;;;;;;;;;5001063;28;20270;-79
2023/12/19 11:18:28;;;;;;;2.10;1.93;;;;;;;;;;4998517;28;20230;-77
2023/12/19 11:21:05;;;;;;;1.70;1.60;;;;;;;;;;5008901;28;21980;-77
2023/12/19 11:23:41;;;;;;;1.80;1.70;;;;;;;;;;5003618;28;20259;-77
2023/12/19 11:26:26;;;;;;;2.63;1.80;;;;;;;;;;4997983;28;20250;-77
2023/12/19 11:28:53;;;;;;;1.60;1.50;;;;;;;;;;5002057;28;20710;-78
2023/12/19 11:31:32;;;;;;;3.60;1.83;;;;;;;;;;4994636;28;20295;-79
2023/12/19 11:34:01;;;;;;;3.47;1.77;;;;;;;;;;5001625;28;20241;-79
2023/12/19 11:36:28;;;;;;;2.00;1.80;;;;;;;;;;5001699;28;20314;-78
2023/12/19 11:39:14;;;;;;;2.80;1.67;;;;;;;;;;4984026;28;20323;-78
2023/12/19 11:41:41;;;;;;;2.60;1.80;;;;;;;;;;5005090;28;20211;-78
2023/12/19 11:44:09;;;;;;;2.03;1.73;;;;;;;;;;5004975;28;20309;-78
2023/12/19 11:46:36;;;;;;;1.70;1.60;;;;;;;;;;4997626;28;20701;-78
2023/12/19 11:49:03;;;;;;;4.10;3.43;;;;;;;;;;5004319;28;20611;-80
2023/12/19 11:51:43;;;;;;;2.90;2.17;;;;;;;;;;5008801;28;20196;-79
2023/12/19 11:54:10;;;;;;;2.47;1.73;;;;;;;;;;5008011;28;20211;-78
2023/12/19 11:56:41;;;;;;;1.60;1.50;;;;;;;;;;5010944;28;20245;-79
2023/12/19 11:59:08;;;;;;;1.83;1.67;;;;;;;;;;5007607;28;20217;-80
2023/12/19 12:01:39;;;;;;;2.00;1.80;;;;;;;;;;5008439;28;20580;-80
2023/12/19 12:04:10;;;;;;;2.45;2.25;;;;;;;;;;5000590;28;20227;-78
2023/12/19 12:06:41;;;;;;;3.30;2.50;;;;;;;;;;5003578;28;20227;-78
2023/12/19 12:09:10;;;;;;;4.00;2.88;;;;;;;;;;5008955;28;20235;-77
2023/12/19 12:11:47;;;;;;;4.03;3.10;;;;;;;;;;4990740;28;20282;-77
2023/12/19 12:14:15;;;;;;;3.67;2.70;;;;;;;;;;5005160;28;20266;-78
2023/12/19 12:16:43;;;;;;;3.17;2.70;;;;;;;;;;5001455;28;20361;-78
2023/12/19 12:19:10;;;;;;;2.60;2.40;;;;;;;;;;5001336;28;20274;-77
2023/12/19 12:21:45;;;;;;;3.05;2.10;;;;;;;;;;4989529;28;20208;-79
2023/12/19 12:24:21;;;;;;;3.30;2.00;;;;;;;;;;5007385;28;20231;-78
2023/12/19 12:27:11;;;;;;;2.15;1.90;;;;;;;;;;5004741;28;20290;-78
2023/12/19 12:29:39;;;;;;;2.80;2.00;;;;;;;;;;5007154;28;20253;-75
2023/12/19 12:32:07;;;;;;;1.83;1.73;;;;;;;;;;5000968;28;20565;-77
2023/12/19 12:34:34;;;;;;;1.77;1.67;;;;;;;;;;5006771;28;20872;-79
2023/12/19 12:37:01;;;;;;;2.10;1.90;;;;;;;;;;5007959;28;20224;-79
2023/12/19 12:39:29;;;;;;;1.80;1.70;;;;;;;;;;5007871;28;20235;-79
2023/12/19 12:42:06;;;;;;;1.67;1.58;;;;;;;;;;5007750;28;20204;-77
2023/12/19 12:44:33;;;;;;;2.00;1.80;;;;;;;;;;5004443;28;20219;-79
2023/12/19 12:47:01;;;;;;;3.03;1.90;;;;;;;;;;4989620;28;20240;-77
2023/12/19 12:49:28;;;;;;;4.28;2.30;;;;;;;;;;4990275;28;20204;-78
2023/12/19 12:51:59;;;;;;;3.33;1.90;;;;;;;;;;5005890;28;20539;-79
2023/12/19 12:54:28;;;;;;;3.03;2.00;;;;;;;;;;5002598;28;20279;-79
2023/12/19 12:56:56;;;;;;;4.28;1.92;;;;;;;;;;5007119;28;20226;-80
2023/12/19 12:59:28;;;;;;;4.03;1.65;;;;;;;;;;4992197;28;20211;-78
2023/12/19 13:01:55;;;;;;;6.13;1.90;;;;;;;;;;5008405;28;20632;-79
2023/12/19 13:04:23;;;;;;;2.65;1.67;;;;;;;;;;5006132;28;20226;-78
2023/12/19 13:06:51;;;;;;;2.08;1.65;;;;;;;;;;5007571;28;20216;-78
2023/12/19 13:09:21;;;;;;;13.93;3.05;;;;;;;;;;5005709;28;20211;-78
2023/12/19 13:11:53;;;;;;;11.00;2.90;;;;;;;;;;5004760;28;20204;-78
2023/12/19 13:14:22;;;;;;;3.35;1.90;;;;;;;;;;5002989;28;20579;-80
2023/12/19 13:16:49;;;;;;;1.50;1.40;;;;;;;;;;5006245;28;20645;-79
2023/12/19 13:19:18;;;;;;;1.55;1.45;;;;;;;;;;5007427;28;20252;-77
2023/12/19 13:21:46;;;;;;;1.67;1.58;;;;;;;;;;5006514;28;20752;-78
2023/12/19 13:24:13;;;;;;;6.85;2.10;;;;;;;;;;5002972;28;20232;-78
2023/12/19 13:26:41;;;;;;;3.37;1.80;;;;;;;;;;4985460;28;20227;-77
2023/12/19 13:29:08;;;;;;;61.60;7.23;;;;;;;;;;5003126;28;20686;-76
2023/12/19 13:31:37;;;;;;;118.10;14.50;;;;;;;;;;5007252;28;21917;-77
2023/12/19 13:34:05;;;;;;;10.23;3.00;;;;;;;;;;5005091;28;21340;-77
2023/12/19 13:36:32;;;;;;;3.10;2.10;;;;;;;;;;4998497;28;20223;-77
2023/12/19 13:38:59;;;;;;;2.90;1.80;;;;;;;;;;5004268;28;20295;-78
2023/12/19 13:41:27;;;;;;;2.50;2.30;;;;;;;;;;5006509;28;20560;-78
2023/12/19 13:43:55;;;;;;;5.03;3.37;;;;;;;;;;5003980;28;20266;-77
2023/12/19 13:46:23;;;;;;;5.97;3.73;;;;;;;;;;5003744;28;20277;-78
2023/12/19 13:48:52;;;;;;;6.80;4.13;;;;;;;;;;5003801;28;20196;-78
2023/12/19 13:51:20;;;;;;;8.13;4.43;;;;;;;;;;5007762;28;20203;-78
2023/12/19 13:53:47;;;;;;;8.03;5.00;;;;;;;;;;5003524;28;20212;-77
2023/12/19 13:56:15;;;;;;;6.40;4.43;;;;;;;;;;5009932;28;20235;-79
2023/12/19 13:58:42;;;;;;;3.17;2.63;;;;;;;;;;5000176;28;20285;-78
2023/12/19 14:01:09;;;;;;;3.20;2.90;;;;;;;;;;5005819;28;20243;-78
2023/12/19 14:03:38;;;;;;;3.73;1.93;;;;;;;;;;5005246;28;20224;-79
2023/12/19 14:06:06;;;;;;;10.27;3.33;;;;;;;;;;5009162;28;20310;-75
2023/12/19 14:08:42;;;;;;;8.23;3.30;;;;;;;;;;5006506;28;20203;-77
2023/12/19 14:11:09;;;;;;;11.87;2.80;;;;;;;;;;5003285;28;20200;-77
2023/12/19 14:13:37;;;;;;;2.50;1.97;;;;;;;;;;5001579;28;20263;-78
2023/12/19 14:16:05;;;;;;;2.87;2.00;;;;;;;;;;5002650;28;20801;-78
2023/12/19 14:18:32;;;;;;;2.97;1.90;;;;;;;;;;5007474;28;20204;-79
2023/12/19 14:21:00;;;;;;;2.17;1.93;;;;;;;;;;5004187;28;20215;-78
2023/12/19 14:23:27;;;;;;;2.00;1.87;;;;;;;;;;5008724;28;20560;-78
2023/12/19 14:25:55;;;;;;;4.13;2.13;;;;;;;;;;5010026;28;20307;-78
2023/12/19 14:28:22;;;;;;;3.60;2.17;;;;;;;;;;5007954;28;20209;-79
2023/12/19 14:30:50;;;;;;;2.47;2.27;;;;;;;;;;5008657;28;20232;-75
2023/12/19 14:33:17;;;;;;;2.70;2.50;;;;;;;;;;5012551;28;20306;-80
2023/12/19 14:35:45;;;;;;;2.40;2.20;;;;;;;;;;5012815;28;20207;-78
2023/12/19 14:38:13;;;;;;;2.60;2.40;;;;;;;;;;5011717;28;20207;-78
2023/12/19 14:40:40;;;;;;;2.87;2.47;;;;;;;;;;5012099;28;20581;-78
2023/12/19 14:43:07;;;;;;;3.10;2.40;;;;;;;;;;5012782;28;20250;-77
2023/12/19 14:45:34;;;;;;;3.73;2.90;;;;;;;;;;5009641;28;20901;-79
2023/12/19 14:48:02;;;;;;;2.60;2.40;;;;;;;;;;5005521;28;20200;-79